createdAt,value
2023-09-08T00:00:18.172Z,8.40
2023-09-08T00:03:06.418Z,8.80
2023-09-08T00:05:34.651Z,8.20
2023-09-08T00:08:02.728Z,7.30
2023-09-08T00:10:30.928Z,7.60
2023-09-08T00:12:58.902Z,7.50
2023-09-08T00:15:27.013Z,8.10
2023-09-08T00:17:55.120Z,7.80
2023-09-08T00:20:23.364Z,10.40
2023-09-08T00:22:51.531Z,8.10
2023-09-08T00:25:19.781Z,7.80
2023-09-08T00:27:47.733Z,8.60
2023-09-08T00:30:15.850Z,7.40
2023-09-08T00:32:44.221Z,8.40
2023-09-08T00:35:14.317Z,8.10
2023-09-08T00:37:42.551Z,7.30
2023-09-08T00:40:11.842Z,7.00
2023-09-08T00:42:39.890Z,7.40
2023-09-08T00:45:08.386Z,7.70
2023-09-08T00:47:36.564Z,7.50
2023-09-08T00:50:06.097Z,6.00
2023-09-08T00:52:35.257Z,6.70
2023-09-08T00:55:03.408Z,8.30
2023-09-08T00:57:32.274Z,7.90
2023-09-08T01:00:00.850Z,8.20
2023-09-08T01:02:29.742Z,8.40
2023-09-08T01:05:01.047Z,7.90
2023-09-08T01:07:55.357Z,8.50
2023-09-08T01:10:23.892Z,8.80
2023-09-08T01:12:51.857Z,8.60
2023-09-08T01:15:20.532Z,8.40
2023-09-08T01:17:48.652Z,7.60
2023-09-08T01:20:24.272Z,7.80
2023-09-08T01:23:10.291Z,8.80
2023-09-08T01:25:52.263Z,8.80
2023-09-08T01:28:21.747Z,8.50
2023-09-08T01:30:50.736Z,8.80
2023-09-08T01:36:12.728Z,8.40
2023-09-08T01:38:40.923Z,9.50
2023-09-08T01:41:09.445Z,9.30
2023-09-08T01:43:37.500Z,9.00
2023-09-08T01:46:05.896Z,9.60
2023-09-08T01:48:34.451Z,10.90
2023-09-08T01:51:02.654Z,8.90
2023-09-08T01:53:30.720Z,8.10
2023-09-08T01:55:58.986Z,9.10
2023-09-08T01:58:27.741Z,8.80
2023-09-08T02:00:56.698Z,8.30
2023-09-08T02:03:24.822Z,8.50
2023-09-08T02:05:52.874Z,9.10
2023-09-08T02:08:21.086Z,8.80
2023-09-08T02:11:14.402Z,8.20
2023-09-08T02:13:45.354Z,8.70
2023-09-08T02:16:17.731Z,9.00
2023-09-08T02:18:46.909Z,8.90
2023-09-08T02:21:15.068Z,8.20
2023-09-08T02:23:43.210Z,9.30
2023-09-08T02:26:12.241Z,8.50
2023-09-08T02:28:40.360Z,9.60
2023-09-08T02:31:08.552Z,9.20
2023-09-08T02:33:36.718Z,8.90
2023-09-08T02:36:07.033Z,9.90
2023-09-08T02:38:37.151Z,9.60
2023-09-08T02:41:06.905Z,10.40
2023-09-08T02:43:34.992Z,9.10
2023-09-08T02:46:03.177Z,9.10
2023-09-08T02:48:32.685Z,8.90
2023-09-08T02:51:00.770Z,9.30
2023-09-08T02:53:30.053Z,9.90
2023-09-08T02:55:59.451Z,8.80
2023-09-08T02:58:28.876Z,9.30
2023-09-08T03:00:57.913Z,9.50
2023-09-08T03:03:26.144Z,9.20
2023-09-08T03:05:57.813Z,7.70
2023-09-08T03:08:26.639Z,4.30
2023-09-08T03:10:57.969Z,8.70
2023-09-08T03:13:30.356Z,7.10
2023-09-08T03:15:58.653Z,9.30
2023-09-08T03:18:26.782Z,7.20
2023-09-08T03:20:55.153Z,7.60
2023-09-08T03:23:23.848Z,8.90
2023-09-08T03:25:51.838Z,5.50
2023-09-08T03:28:20.004Z,7.00
2023-09-08T03:30:47.967Z,6.40
2023-09-08T03:33:16.373Z,8.10
2023-09-08T03:35:45.349Z,7.80
2023-09-08T03:38:13.494Z,8.70
2023-09-08T03:40:42.002Z,7.90
2023-09-08T03:43:10.121Z,8.20
2023-09-08T03:45:38.164Z,9.20
2023-09-08T03:48:06.890Z,9.20
2023-09-08T03:50:35.998Z,9.20
2023-09-08T03:53:04.941Z,7.50
2023-09-08T03:55:33.745Z,9.30
2023-09-08T03:58:01.744Z,10.00
2023-09-08T04:05:17.618Z,9.20
2023-09-08T04:07:46.998Z,10.70
2023-09-08T04:10:15.910Z,9.80
2023-09-08T04:12:45.411Z,10.00
2023-09-08T04:15:13.640Z,10.60
2023-09-08T04:17:41.919Z,9.70
2023-09-08T04:20:10.674Z,9.30
2023-09-08T04:22:38.703Z,10.30
2023-09-08T04:25:07.882Z,8.10
2023-09-08T04:27:37.881Z,10.10
2023-09-08T04:34:41.531Z,7.80
2023-09-08T04:37:10.268Z,9.10
2023-09-08T04:39:38.510Z,9.90
2023-09-08T04:42:07.464Z,8.80
2023-09-08T04:44:35.617Z,7.70
2023-09-08T04:47:04.560Z,7.70
2023-09-08T04:49:33.082Z,6.60
2023-09-08T04:52:01.511Z,8.10
2023-09-08T04:54:31.145Z,8.30
2023-09-08T04:57:11.785Z,9.90
2023-09-08T04:59:49.288Z,9.60
2023-09-08T05:02:19.784Z,10.00
2023-09-08T05:04:48.476Z,10.90
2023-09-08T05:07:18.330Z,13.80
2023-09-08T05:09:46.542Z,11.20
2023-09-08T05:12:14.895Z,10.00
2023-09-08T05:14:43.318Z,9.40
2023-09-08T05:17:12.247Z,10.10
2023-09-08T05:19:40.327Z,9.30
2023-09-08T05:22:08.474Z,8.60
2023-09-08T05:24:36.608Z,8.60
2023-09-08T05:27:05.734Z,8.00
2023-09-08T11:04:39.291Z,4.60
2023-09-08T11:07:07.320Z,3.60
2023-09-08T11:09:38.773Z,4.00
2023-09-08T11:12:09.584Z,3.60
2023-09-08T11:14:37.772Z,3.60
2023-09-08T11:17:05.820Z,3.60
2023-09-08T11:19:48.747Z,3.70
2023-09-08T11:22:20.513Z,4.40
2023-09-08T11:24:49.791Z,4.00
2023-09-08T11:27:18.617Z,3.50
2023-09-08T11:29:46.935Z,3.50
2023-09-08T11:32:16.209Z,3.30
2023-09-08T11:34:49.249Z,3.50
2023-09-08T11:37:20.457Z,3.40
2023-09-08T11:39:48.903Z,3.40
2023-09-08T11:42:17.733Z,3.20
2023-09-08T11:44:45.951Z,3.50
2023-09-08T11:47:14.223Z,3.90
2023-09-08T11:49:43.327Z,3.50
2023-09-08T11:52:12.401Z,3.50
2023-09-08T11:54:51.912Z,3.70
2023-09-08T11:57:29.942Z,3.20
2023-09-08T11:59:59.269Z,3.60
2023-09-08T12:02:27.792Z,3.50
2023-09-08T12:04:56.164Z,3.90
2023-09-08T12:07:24.870Z,3.60
2023-09-08T12:09:52.945Z,4.00
2023-09-08T12:12:21.097Z,3.80
2023-09-08T12:14:49.130Z,3.80
2023-09-08T12:17:18.923Z,3.60
2023-09-08T12:19:47.075Z,3.60
2023-09-08T12:22:20.028Z,3.50
2023-09-08T12:25:09.643Z,3.80
2023-09-08T12:27:38.779Z,3.60
2023-09-08T12:30:09.656Z,3.80
2023-09-08T12:32:38.089Z,4.10
2023-09-08T12:35:06.451Z,4.10
2023-09-08T12:37:35.165Z,3.90
2023-09-08T12:40:03.432Z,4.00
2023-09-08T12:42:35.335Z,4.20
2023-09-08T12:45:08.902Z,6.90
2023-09-08T12:47:37.228Z,4.20
2023-09-08T12:50:06.265Z,3.90
2023-09-08T12:52:34.251Z,3.70
2023-09-08T12:55:02.296Z,4.80
2023-09-08T12:57:31.678Z,3.70
2023-09-08T13:00:00.252Z,3.70
2023-09-08T13:02:28.450Z,3.80
2023-09-08T13:04:56.987Z,3.90
2023-09-08T13:07:25.463Z,4.10
2023-09-08T13:09:53.931Z,4.00
2023-09-08T13:12:22.170Z,4.00
2023-09-08T13:14:50.547Z,4.20
2023-09-08T13:17:18.668Z,3.80
2023-09-08T13:19:46.744Z,3.70
2023-09-08T13:22:15.220Z,3.80
2023-09-08T13:24:43.997Z,4.00
2023-09-08T13:27:13.010Z,3.90
2023-09-08T13:29:41.058Z,3.80
2023-09-08T13:32:09.126Z,3.90
2023-09-08T13:34:37.381Z,3.70
2023-09-08T13:37:05.949Z,3.80
2023-09-08T13:39:34.174Z,3.90
2023-09-08T13:42:03.496Z,4.00
2023-09-08T13:44:41.400Z,4.00
2023-09-08T13:47:27.965Z,3.90
2023-09-08T13:49:58.455Z,4.00
2023-09-08T13:52:28.245Z,3.70
2023-09-08T13:57:30.590Z,3.50
2023-09-08T13:59:58.916Z,3.50
2023-09-08T14:05:02.613Z,6.00
2023-09-08T14:07:37.408Z,6.30
2023-09-08T14:12:41.659Z,4.20
2023-09-08T14:15:09.973Z,4.10
2023-09-08T14:17:38.332Z,4.30
2023-09-08T14:20:06.953Z,4.50
2023-09-08T14:22:34.904Z,4.10
2023-09-08T14:25:02.929Z,5.30
2023-09-08T14:27:30.839Z,4.80
2023-09-08T14:29:58.823Z,4.40
2023-09-08T14:32:26.776Z,4.20
2023-09-08T14:34:54.909Z,4.50
2023-09-08T14:37:23.685Z,4.50
2023-09-08T14:39:51.770Z,4.30
2023-09-08T14:42:19.836Z,4.00
2023-09-08T14:44:48.114Z,4.30
2023-09-08T14:47:16.169Z,4.60
2023-09-08T14:49:44.384Z,4.40
2023-09-08T14:52:12.410Z,4.50
2023-09-08T14:54:41.752Z,4.50
2023-09-08T14:57:10.015Z,4.50
2023-09-08T14:59:38.335Z,4.10
2023-09-08T15:02:07.779Z,4.30
2023-09-08T15:04:35.861Z,4.20
2023-09-08T15:07:04.798Z,4.70
2023-09-08T15:09:32.994Z,4.80
2023-09-08T15:12:01.038Z,4.30
2023-09-08T15:14:29.053Z,5.30
2023-09-08T15:16:57.029Z,4.20
2023-09-08T15:19:24.990Z,4.10
2023-09-08T15:21:52.927Z,4.50
2023-09-08T15:24:21.116Z,4.40
2023-09-08T15:26:51.185Z,4.40
2023-09-08T15:29:21.303Z,4.60
2023-09-08T15:31:49.955Z,5.50
2023-09-08T15:34:19.055Z,4.70
2023-09-08T15:36:48.998Z,4.60
2023-09-08T15:39:16.954Z,4.20
2023-09-08T15:41:45.932Z,4.40
2023-09-08T15:44:15.327Z,4.10
2023-09-08T15:46:43.978Z,4.20
2023-09-08T15:49:12.402Z,4.70
2023-09-08T15:51:41.569Z,14.90
2023-09-08T15:54:13.268Z,7.50
2023-09-08T15:56:41.305Z,5.00
2023-09-08T15:59:09.281Z,5.00
2023-09-08T16:01:37.628Z,4.60
2023-09-08T16:04:10.421Z,4.70
2023-09-08T16:06:39.045Z,5.00
2023-09-08T16:09:07.300Z,5.40
2023-09-08T16:11:35.270Z,5.20
2023-09-08T16:14:03.148Z,6.10
2023-09-08T16:16:31.497Z,6.20
2023-09-08T16:18:59.485Z,4.90
2023-09-08T16:21:27.443Z,5.40
2023-09-08T16:23:57.181Z,5.40
2023-09-08T16:26:25.537Z,5.60
2023-09-08T16:28:54.018Z,6.60
2023-09-08T16:31:22.028Z,6.00
2023-09-08T16:33:49.987Z,5.90
2023-09-08T16:36:18.978Z,6.00
2023-09-08T16:38:47.056Z,7.30
2023-09-08T16:41:15.024Z,6.90
2023-09-08T16:43:43.962Z,7.60
2023-09-08T16:46:15.427Z,8.60
2023-09-08T16:48:44.116Z,9.60
2023-09-08T16:51:12.116Z,8.70
2023-09-08T16:53:40.199Z,10.10
2023-09-08T16:56:10.311Z,7.60
2023-09-08T16:58:38.497Z,6.20
2023-09-08T17:01:06.569Z,6.70
2023-09-08T17:03:35.001Z,5.50
2023-09-08T17:06:03.214Z,5.30
2023-09-08T17:08:31.548Z,5.60
2023-09-08T17:11:06.858Z,6.20
2023-09-08T17:13:35.511Z,5.10
2023-09-08T17:16:04.205Z,5.40
2023-09-08T17:18:32.795Z,5.30
2023-09-08T17:21:01.597Z,5.30
2023-09-08T17:23:29.702Z,5.20
2023-09-08T17:25:57.774Z,5.50
2023-09-08T17:28:26.864Z,5.70
2023-09-08T17:30:55.103Z,6.30
2023-09-08T17:33:26.201Z,6.20
2023-09-08T17:35:54.287Z,6.20
2023-09-08T17:38:22.316Z,6.70
2023-09-08T17:40:51.459Z,5.40
2023-09-08T17:43:19.757Z,5.50
2023-09-08T17:45:47.836Z,6.60
2023-09-08T17:48:16.064Z,7.30
2023-09-08T17:50:44.900Z,5.60
2023-09-08T17:53:12.988Z,5.90
2023-09-08T17:55:41.042Z,5.60
2023-09-08T17:58:09.136Z,5.90
2023-09-08T18:00:37.243Z,5.40
2023-09-08T18:03:05.955Z,5.60
2023-09-08T18:05:34.144Z,5.40
2023-09-08T18:08:02.471Z,5.20
2023-09-08T18:10:30.707Z,5.30
2023-09-08T18:12:58.819Z,5.70
2023-09-08T18:15:26.984Z,4.70
2023-09-08T18:17:55.028Z,5.20
2023-09-08T18:20:23.343Z,5.80
2023-09-08T18:22:55.715Z,7.90
2023-09-08T18:25:24.066Z,6.10
2023-09-08T18:27:52.125Z,5.70
2023-09-08T18:30:20.275Z,6.80
2023-09-08T18:32:50.760Z,6.60
2023-09-08T18:35:18.683Z,6.10
2023-09-08T18:37:46.768Z,6.90
2023-09-08T18:40:14.804Z,6.70
2023-09-08T18:42:42.858Z,8.10
2023-09-08T18:45:11.388Z,8.10
2023-09-08T18:47:39.582Z,8.00
2023-09-08T18:50:08.169Z,8.30
2023-09-08T18:52:36.241Z,7.80
2023-09-08T18:55:07.404Z,7.90
2023-09-08T18:57:35.501Z,7.40
2023-09-08T19:04:36.434Z,7.50
2023-09-08T19:07:04.453Z,7.60
2023-09-08T19:09:32.481Z,7.80
2023-09-08T19:12:00.526Z,8.20
2023-09-08T19:14:29.715Z,7.40
2023-09-08T19:17:01.661Z,8.30
2023-09-08T19:19:30.103Z,8.20
2023-09-08T19:21:58.097Z,9.30
2023-09-08T19:24:26.134Z,9.00
2023-09-08T19:26:54.443Z,9.40
2023-09-08T19:29:22.828Z,8.10
2023-09-08T19:31:50.805Z,8.20
2023-09-08T19:34:19.521Z,8.10
2023-09-08T19:36:47.494Z,8.30
2023-09-08T19:39:15.460Z,8.80
2023-09-08T19:41:43.629Z,8.50
2023-09-08T19:44:11.601Z,10.60
2023-09-08T19:46:39.678Z,8.00
2023-09-08T19:49:07.903Z,7.20
2023-09-08T19:51:36.097Z,7.50
2023-09-08T19:54:04.232Z,8.60
2023-09-08T19:56:32.170Z,10.20
2023-09-08T19:59:01.910Z,10.40
2023-09-08T20:01:31.906Z,10.50
2023-09-08T20:04:01.586Z,9.00
2023-09-08T20:06:29.652Z,9.10
2023-09-08T20:08:58.079Z,8.80
2023-09-08T20:11:26.354Z,8.80
2023-09-08T20:13:55.209Z,8.80
2023-09-08T20:16:23.280Z,9.50
2023-09-08T20:18:51.638Z,10.30
2023-09-08T20:21:19.692Z,9.60
2023-09-08T20:23:47.810Z,10.30
2023-09-08T20:26:15.758Z,9.60
2023-09-08T20:28:46.868Z,10.90
2023-09-08T20:31:17.481Z,9.90
2023-09-08T20:33:47.005Z,11.20
2023-09-08T20:36:16.031Z,11.30
2023-09-08T20:38:45.134Z,12.10
2023-09-08T20:41:13.694Z,12.10
2023-09-08T20:43:42.184Z,12.60
2023-09-08T20:46:10.277Z,12.40
2023-09-08T20:48:39.371Z,11.70
2023-09-08T20:51:11.821Z,11.40
2023-09-08T20:53:43.676Z,11.00
2023-09-08T20:56:11.869Z,10.50
2023-09-08T20:58:41.638Z,9.70
2023-09-08T21:01:10.833Z,9.10
2023-09-08T21:03:40.301Z,9.20
2023-09-08T21:06:11.015Z,10.50
2023-09-08T21:08:39.258Z,11.10
2023-09-08T21:11:07.682Z,10.50
2023-09-08T21:13:35.828Z,11.20
2023-09-08T21:16:04.397Z,10.50
2023-09-08T21:18:32.829Z,11.20
2023-09-08T21:21:00.911Z,11.00
2023-09-08T21:23:29.312Z,11.20
2023-09-08T21:25:57.457Z,10.30
2023-09-08T21:28:25.702Z,9.70
2023-09-08T21:31:08.776Z,8.60
2023-09-08T21:33:39.373Z,9.20
2023-09-08T21:36:11.982Z,10.20
2023-09-08T21:41:10.916Z,9.30
2023-09-08T21:43:39.928Z,9.40
2023-09-08T21:46:09.940Z,8.70
2023-09-08T21:48:39.700Z,8.80
2023-09-08T21:51:08.482Z,9.50
2023-09-08T21:53:36.541Z,7.70
2023-09-08T21:56:04.718Z,8.00
2023-09-08T21:58:33.105Z,9.00
2023-09-08T22:01:01.964Z,7.90
2023-09-08T22:03:31.897Z,8.80
2023-09-08T22:06:00.461Z,8.50
2023-09-08T22:08:28.930Z,8.40
2023-09-08T22:11:06.097Z,8.80
2023-09-08T22:13:36.695Z,8.70
2023-09-08T22:16:06.369Z,9.50
2023-09-08T22:18:34.810Z,9.80
2023-09-08T22:21:03.787Z,8.80
2023-09-08T22:23:34.100Z,8.50
2023-09-08T22:26:03.869Z,8.10
2023-09-08T22:28:31.943Z,7.50
2023-09-08T22:31:00.086Z,8.80
2023-09-08T22:33:30.581Z,9.40
2023-09-08T22:35:59.357Z,9.50
2023-09-08T22:38:28.481Z,9.40
2023-09-08T22:40:56.720Z,8.50
2023-09-08T22:43:25.728Z,8.70
2023-09-08T22:45:54.793Z,8.80
2023-09-08T22:48:23.294Z,7.80
2023-09-08T22:50:51.814Z,9.00
2023-09-08T22:53:20.980Z,10.20
2023-09-08T22:55:49.125Z,10.20
2023-09-08T22:58:17.816Z,10.70
2023-09-08T23:00:46.057Z,9.40
2023-09-08T23:03:14.151Z,10.10
2023-09-08T23:05:42.466Z,11.10
2023-09-08T23:08:10.658Z,10.70
2023-09-08T23:10:38.781Z,10.40
2023-09-08T23:13:06.715Z,10.40
2023-09-08T23:15:34.912Z,9.40
2023-09-08T23:18:03.547Z,9.60
2023-09-08T23:20:31.666Z,10.40
2023-09-08T23:23:00.171Z,11.80
2023-09-08T23:25:28.481Z,10.20
2023-09-08T23:27:56.476Z,11.80
2023-09-08T23:30:24.751Z,10.60
2023-09-08T23:32:52.762Z,9.70
2023-09-08T23:35:20.900Z,10.30
2023-09-08T23:37:49.054Z,10.40
2023-09-08T23:40:18.070Z,10.70
2023-09-08T23:42:46.052Z,12.30
2023-09-08T23:45:14.247Z,10.60
2023-09-08T23:47:42.276Z,10.10
2023-09-08T23:50:10.527Z,10.30
2023-09-08T23:52:39.025Z,11.20
2023-09-08T23:55:07.492Z,10.40
2023-09-08T23:57:35.526Z,9.00
